Time;durP1;ratioP1;P1;durP2;ratioP2;P2;SDS_P1;SDS_P2;PMS_P1;PMS_P2;Temp;Humidity;BMP_temperature;BMP_pressure;BME280_temperature;BME280_humidity;BME280_pressure;Samples;Min_cycle;Max_cycle;Signal;HPM_P1;HPM_P2
2023/10/11 00:00:33;;;;;;;8.68;3.42;;;;;;;;;;5054967;28;20205;-76
2023/10/11 00:03:05;;;;;;;12.57;4.63;;;;;;;;;;5055155;28;20277;-76
2023/10/11 00:05:37;;;;;;;13.13;5.60;;;;;;;;;;5055794;28;20414;-76
2023/10/11 00:08:04;;;;;;;7.50;4.88;;;;;;;;;;5054871;28;20183;-76
2023/10/11 00:10:32;;;;;;;7.50;4.13;;;;;;;;;;5055487;28;20567;-75
2023/10/11 00:12:59;;;;;;;16.38;5.18;;;;;;;;;;5055393;28;20941;-75
2023/10/11 00:15:29;;;;;;;7.95;4.80;;;;;;;;;;5055051;28;20183;-75
2023/10/11 00:17:56;;;;;;;10.48;4.57;;;;;;;;;;5054782;28;20663;-77
2023/10/11 00:20:34;;;;;;;10.20;4.40;;;;;;;;;;5054925;28;20198;-76
2023/10/11 00:23:01;;;;;;;11.50;5.53;;;;;;;;;;5055067;28;20433;-75
2023/10/11 00:25:29;;;;;;;7.50;4.28;;;;;;;;;;5053848;28;20214;-79
2023/10/11 00:27:58;;;;;;;8.20;3.40;;;;;;;;;;5055162;28;20191;-75
2023/10/11 00:30:25;;;;;;;11.18;4.40;;;;;;;;;;5055296;28;20241;-75
2023/10/11 00:32:53;;;;;;;6.82;2.53;;;;;;;;;;5055147;28;20278;-76
2023/10/11 00:35:24;;;;;;;6.43;3.20;;;;;;;;;;5055130;28;20199;-75
2023/10/11 00:37:54;;;;;;;6.90;3.05;;;;;;;;;;5055329;28;20179;-75
2023/10/11 00:40:25;;;;;;;6.20;3.13;;;;;;;;;;5054565;28;20660;-76
2023/10/11 00:42:53;;;;;;;5.18;3.00;;;;;;;;;;5054592;28;20191;-78
2023/10/11 00:45:22;;;;;;;5.35;2.92;;;;;;;;;;5054007;28;20648;-75
2023/10/11 00:47:53;;;;;;;6.82;2.95;;;;;;;;;;5054787;28;20592;-76
2023/10/11 00:50:21;;;;;;;5.45;2.97;;;;;;;;;;5054749;28;20525;-76
2023/10/11 00:52:50;;;;;;;6.32;3.10;;;;;;;;;;5054402;28;20198;-75
2023/10/11 00:55:21;;;;;;;6.22;3.67;;;;;;;;;;5054330;28;20194;-76
2023/10/11 00:57:49;;;;;;;5.55;2.67;;;;;;;;;;5053374;28;20189;-75
2023/10/11 01:00:21;;;;;;;2.90;1.75;;;;;;;;;;5053687;28;20521;-75
2023/10/11 01:02:51;;;;;;;11.15;5.72;;;;;;;;;;5054798;28;20553;-75
2023/10/11 01:05:43;;;;;;;10.30;4.22;;;;;;;;;;5053826;28;20187;-76
2023/10/11 01:08:11;;;;;;;6.47;3.97;;;;;;;;;;5054623;28;20182;-75
2023/10/11 01:10:45;;;;;;;5.90;3.20;;;;;;;;;;5053553;28;20186;-75
2023/10/11 01:13:13;;;;;;;8.10;3.85;;;;;;;;;;5054034;28;20175;-76
2023/10/11 01:15:41;;;;;;;11.45;4.75;;;;;;;;;;5053966;28;20222;-75
2023/10/11 01:18:08;;;;;;;10.30;4.00;;;;;;;;;;5053590;28;20187;-75
2023/10/11 01:20:39;;;;;;;5.82;3.10;;;;;;;;;;5054281;28;20240;-75
2023/10/11 01:23:06;;;;;;;8.18;3.22;;;;;;;;;;5054043;28;20582;-76
2023/10/11 01:25:34;;;;;;;10.95;2.90;;;;;;;;;;5053797;28;20261;-76
2023/10/11 01:28:02;;;;;;;6.05;3.35;;;;;;;;;;5053463;28;20190;-75
2023/10/11 01:30:29;;;;;;;8.07;2.95;;;;;;;;;;5053252;28;20276;-75
2023/10/11 01:32:56;;;;;;;10.25;4.78;;;;;;;;;;5053689;28;20226;-76
2023/10/11 01:35:35;;;;;;;7.45;3.60;;;;;;;;;;5052834;28;20539;-76
2023/10/11 01:38:05;;;;;;;9.25;3.25;;;;;;;;;;5054361;28;20178;-75
2023/10/11 01:40:33;;;;;;;13.15;3.53;;;;;;;;;;5053835;28;20182;-76
2023/10/11 01:43:02;;;;;;;6.43;3.05;;;;;;;;;;5053281;28;20633;-75
2023/10/11 01:45:31;;;;;;;9.57;3.60;;;;;;;;;;5053125;28;20218;-75
2023/10/11 01:47:58;;;;;;;7.00;3.85;;;;;;;;;;5053207;28;20544;-76
2023/10/11 01:50:25;;;;;;;8.68;4.57;;;;;;;;;;5053344;28;20557;-76
2023/10/11 01:52:53;;;;;;;6.13;3.38;;;;;;;;;;5052934;28;20187;-75
2023/10/11 01:55:36;;;;;;;6.38;3.45;;;;;;;;;;5052252;28;20253;-76
2023/10/11 01:58:06;;;;;;;8.88;3.85;;;;;;;;;;5052506;28;20226;-76
2023/10/11 02:00:44;;;;;;;9.40;3.55;;;;;;;;;;5052147;28;20233;-75
2023/10/11 02:03:13;;;;;;;7.43;3.70;;;;;;;;;;5053201;28;20179;-75
2023/10/11 02:05:41;;;;;;;9.50;3.35;;;;;;;;;;5053208;28;20218;-75
2023/10/11 02:08:12;;;;;;;13.63;4.38;;;;;;;;;;5052890;28;20187;-75
2023/10/11 02:10:40;;;;;;;9.05;4.75;;;;;;;;;;5052521;28;20648;-76
2023/10/11 02:13:09;;;;;;;17.65;4.57;;;;;;;;;;5052216;28;20691;-75
2023/10/11 02:15:38;;;;;;;8.20;3.40;;;;;;;;;;5052917;28;20219;-75
2023/10/11 02:18:08;;;;;;;6.07;3.90;;;;;;;;;;5052132;28;20414;-75
2023/10/11 02:20:43;;;;;;;8.35;3.55;;;;;;;;;;5052695;28;20187;-75
2023/10/11 02:23:11;;;;;;;5.47;2.75;;;;;;;;;;5052659;28;20178;-75
2023/10/11 02:25:41;;;;;;;18.13;4.45;;;;;;;;;;5052264;28;20227;-76
2023/10/11 02:28:14;;;;;;;7.00;3.63;;;;;;;;;;5051974;28;20186;-77
2023/10/11 02:30:42;;;;;;;5.70;3.40;;;;;;;;;;5052855;28;20221;-75
2023/10/11 02:33:11;;;;;;;7.82;4.03;;;;;;;;;;5051897;28;20191;-75
2023/10/11 02:35:51;;;;;;;6.25;3.20;;;;;;;;;;5052043;28;20222;-76
2023/10/11 02:38:23;;;;;;;6.38;3.75;;;;;;;;;;5053121;28;20202;-75
2023/10/11 02:40:55;;;;;;;7.65;3.15;;;;;;;;;;5052793;28;20621;-75
2023/10/11 02:43:27;;;;;;;7.60;4.18;;;;;;;;;;5052566;28;20187;-75
2023/10/11 02:45:59;;;;;;;10.50;2.80;;;;;;;;;;5052413;28;20174;-75
2023/10/11 02:48:28;;;;;;;7.72;3.50;;;;;;;;;;5052548;28;20612;-75
2023/10/11 02:50:57;;;;;;;8.05;3.20;;;;;;;;;;5052191;28;20190;-76
2023/10/11 02:53:25;;;;;;;9.30;3.35;;;;;;;;;;5052004;28;20236;-76
2023/10/11 02:55:59;;;;;;;6.47;3.90;;;;;;;;;;5052661;28;20660;-79
2023/10/11 02:58:29;;;;;;;11.65;3.03;;;;;;;;;;5053037;28;20257;-76
2023/10/11 03:01:00;;;;;;;7.72;3.70;;;;;;;;;;5052185;28;20191;-76
2023/10/11 03:03:27;;;;;;;8.30;3.72;;;;;;;;;;5052252;28;20681;-80
2023/10/11 03:05:56;;;;;;;8.18;3.70;;;;;;;;;;5051537;28;20189;-75
2023/10/11 03:08:26;;;;;;;6.40;3.65;;;;;;;;;;5054468;28;20625;-75
2023/10/11 03:10:54;;;;;;;7.85;3.53;;;;;;;;;;5056272;28;20604;-76
2023/10/11 03:13:29;;;;;;;7.00;4.05;;;;;;;;;;5056251;28;20269;-75
2023/10/11 03:15:57;;;;;;;9.15;5.43;;;;;;;;;;5055894;28;20198;-76
2023/10/11 03:18:27;;;;;;;8.93;5.47;;;;;;;;;;5056033;28;20213;-75
2023/10/11 03:24:24;;;;;;;10.30;7.85;;;;;;;;;;5055333;28;20196;-75
2023/10/11 03:26:52;;;;;;;8.82;4.95;;;;;;;;;;5016044;28;20184;-75
2023/10/11 03:29:21;;;;;;;10.55;4.85;;;;;;;;;;5015635;28;20251;-75
2023/10/11 03:31:49;;;;;;;7.82;5.05;;;;;;;;;;5016034;28;20188;-76
2023/10/11 03:34:19;;;;;;;9.07;5.88;;;;;;;;;;5015345;28;20226;-77
2023/10/11 03:36:51;;;;;;;6.15;4.53;;;;;;;;;;5015583;28;20537;-75
2023/10/11 03:39:37;;;;;;;12.57;5.40;;;;;;;;;;5014871;28;20191;-77
2023/10/11 03:42:14;;;;;;;11.35;5.38;;;;;;;;;;5015649;28;20492;-76
2023/10/11 03:44:45;;;;;;;10.55;4.40;;;;;;;;;;5014878;28;20184;-77
2023/10/11 03:47:14;;;;;;;10.82;4.20;;;;;;;;;;5015225;28;20307;-76
2023/10/11 03:49:52;;;;;;;13.02;6.32;;;;;;;;;;5015611;28;20188;-76
2023/10/11 03:52:22;;;;;;;7.82;3.72;;;;;;;;;;5015541;28;20234;-76
2023/10/11 03:55:01;;;;;;;10.93;4.32;;;;;;;;;;5014850;28;20359;-77
2023/10/11 03:57:35;;;;;;;9.10;4.35;;;;;;;;;;5016225;28;20176;-75
2023/10/11 04:00:08;;;;;;;11.25;5.15;;;;;;;;;;5030515;28;20560;-81
2023/10/11 04:02:36;;;;;;;7.95;2.92;;;;;;;;;;5015656;28;20226;-77
2023/10/11 04:05:09;;;;;;;7.07;3.40;;;;;;;;;;5014861;28;20696;-76
2023/10/11 04:07:40;;;;;;;8.02;3.00;;;;;;;;;;5015026;28;20176;-76
2023/10/11 04:10:10;;;;;;;5.65;3.20;;;;;;;;;;5015017;28;20538;-76
2023/10/11 04:12:42;;;;;;;10.18;3.58;;;;;;;;;;5014876;28;20493;-78
2023/10/11 04:15:24;;;;;;;6.35;3.10;;;;;;;;;;5014795;28;20303;-75
2023/10/11 04:17:51;;;;;;;11.82;3.70;;;;;;;;;;5031393;28;20227;-76
2023/10/11 04:20:21;;;;;;;9.52;4.07;;;;;;;;;;5014237;28;20192;-76
2023/10/11 04:22:51;;;;;;;7.57;3.17;;;;;;;;;;5014247;28;20199;-75
2023/10/11 04:25:38;;;;;;;5.28;3.20;;;;;;;;;;5019242;28;20207;-77
2023/10/11 04:28:05;;;;;;;6.72;3.03;;;;;;;;;;5054850;28;20266;-76
2023/10/11 04:33:50;;;;;;;8.20;3.25;;;;;;;;;;5052770;28;20189;-76
2023/10/11 04:36:20;;;;;;;7.70;4.03;;;;;;;;;;5054460;28;20199;-78
2023/10/11 04:38:49;;;;;;;10.38;3.85;;;;;;;;;;5054893;28;20229;-76
2023/10/11 04:41:16;;;;;;;10.45;3.92;;;;;;;;;;5054736;28;20195;-77
2023/10/11 04:43:50;;;;;;;7.15;3.78;;;;;;;;;;5054520;28;20237;-80
2023/10/11 04:46:18;;;;;;;8.05;3.70;;;;;;;;;;5054681;28;20217;-78
2023/10/11 04:48:48;;;;;;;11.00;3.45;;;;;;;;;;5053929;28;20596;-76
2023/10/11 05:16:06;;;;;;;8.55;4.15;;;;;;;;;;5051318;28;20241;-77
2023/10/11 05:18:37;;;;;;;10.98;3.75;;;;;;;;;;5049648;28;20183;-75
2023/10/11 05:21:14;;;;;;;10.25;4.05;;;;;;;;;;5053931;28;20178;-75
2023/10/11 05:23:52;;;;;;;13.07;4.10;;;;;;;;;;5051179;28;20175;-76
2023/10/11 05:29:09;;;;;;;7.38;3.40;;;;;;;;;;5052635;28;20650;-75
2023/10/11 05:31:47;;;;;;;8.52;4.07;;;;;;;;;;5051773;28;20189;-76
2023/10/11 05:50:57;;;;;;;9.30;4.88;;;;;;;;;;5049512;28;20202;-75
2023/10/11 05:53:25;;;;;;;7.68;5.40;;;;;;;;;;5051612;28;20237;-75
2023/10/11 05:55:53;;;;;;;9.25;5.20;;;;;;;;;;5051243;28;20207;-76
2023/10/11 05:58:21;;;;;;;9.82;6.13;;;;;;;;;;5051466;28;20360;-77
2023/10/11 06:00:54;;;;;;;11.38;8.15;;;;;;;;;;5051306;28;20197;-76
2023/10/11 06:03:28;;;;;;;13.02;6.63;;;;;;;;;;5050950;28;20229;-76
2023/10/11 06:05:55;;;;;;;9.70;5.10;;;;;;;;;;5049025;28;20194;-78
2023/10/11 06:08:24;;;;;;;10.50;5.75;;;;;;;;;;5051465;28;20195;-75
2023/10/11 06:10:55;;;;;;;8.63;5.07;;;;;;;;;;5051766;28;20182;-76
2023/10/11 06:13:25;;;;;;;9.90;4.75;;;;;;;;;;5051574;28;20187;-75
2023/10/11 06:15:59;;;;;;;11.15;5.45;;;;;;;;;;5053582;28;20222;-75
2023/10/11 06:18:39;;;;;;;7.32;4.25;;;;;;;;;;5053235;28;20186;-75
2023/10/11 06:21:18;;;;;;;9.75;6.35;;;;;;;;;;5053457;28;20241;-76
2023/10/11 06:23:48;;;;;;;11.20;4.15;;;;;;;;;;5053506;28;20262;-75
2023/10/11 06:26:52;;;;;;;8.35;4.95;;;;;;;;;;5053311;28;20226;-75
2023/10/11 06:29:17;;;;;;;15.15;4.50;;;;;;;;;;5034496;28;20193;-76
2023/10/11 06:31:44;;;;;;;7.80;4.00;;;;;;;;;;5038260;28;20183;-76
2023/10/11 06:34:22;;;;;;;7.75;4.45;;;;;;;;;;5052892;28;20191;-76
2023/10/11 06:36:49;;;;;;;9.10;4.18;;;;;;;;;;5052998;28;20179;-75
2023/10/11 06:41:58;;;;;;;11.03;4.87;;;;;;;;;;5019125;28;20187;-75
2023/10/11 06:44:26;;;;;;;9.00;4.37;;;;;;;;;;5052739;28;20467;-76
2023/10/11 06:46:53;;;;;;;14.67;4.40;;;;;;;;;;5052864;28;20433;-76
2023/10/11 06:49:23;;;;;;;9.20;4.37;;;;;;;;;;5053340;28;20499;-75
2023/10/11 06:51:51;;;;;;;7.83;4.10;;;;;;;;;;5038911;28;20430;-76
2023/10/11 06:54:23;;;;;;;13.20;4.93;;;;;;;;;;5052570;28;20436;-76
2023/10/11 06:56:51;;;;;;;9.93;4.30;;;;;;;;;;5052649;28;20477;-81
2023/10/11 06:59:19;;;;;;;8.93;4.90;;;;;;;;;;5052628;28;20922;-76
2023/10/11 07:01:47;;;;;;;16.33;5.00;;;;;;;;;;5052957;28;20456;-75
2023/10/11 07:04:18;;;;;;;11.10;5.37;;;;;;;;;;5052627;28;20433;-75
2023/10/11 07:06:48;;;;;;;10.83;6.43;;;;;;;;;;5051950;28;20869;-76
2023/10/11 07:09:22;;;;;;;13.53;5.63;;;;;;;;;;5052463;28;20433;-76
2023/10/11 07:11:52;;;;;;;8.63;4.20;;;;;;;;;;5053015;28;20425;-76
2023/10/11 07:14:25;;;;;;;12.97;5.27;;;;;;;;;;5052433;28;20514;-76
2023/10/11 07:16:53;;;;;;;9.03;3.73;;;;;;;;;;5052288;28;20469;-76
2023/10/11 07:19:20;;;;;;;10.23;4.30;;;;;;;;;;5052254;28;20439;-75
2023/10/11 07:22:02;;;;;;;9.57;4.97;;;;;;;;;;5053052;28;20442;-76
2023/10/11 07:24:33;;;;;;;7.53;3.87;;;;;;;;;;5051362;28;20441;-76
2023/10/11 07:27:08;;;;;;;8.90;3.77;;;;;;;;;;5052463;28;20457;-76
2023/10/11 07:29:36;;;;;;;7.70;3.80;;;;;;;;;;5052824;28;20503;-76
2023/10/11 07:32:03;;;;;;;7.20;3.80;;;;;;;;;;5052452;28;20468;-76
2023/10/11 07:34:31;;;;;;;9.27;3.70;;;;;;;;;;5052396;28;20923;-76
2023/10/11 07:37:03;;;;;;;12.70;3.70;;;;;;;;;;5052589;28;20469;-77
2023/10/11 07:39:33;;;;;;;9.50;4.20;;;;;;;;;;5052961;28;20774;-76
2023/10/11 07:42:06;;;;;;;13.33;4.00;;;;;;;;;;5053146;28;20448;-76
2023/10/11 07:44:36;;;;;;;12.87;3.87;;;;;;;;;;5052521;28;20417;-76
2023/10/11 07:47:03;;;;;;;11.40;3.60;;;;;;;;;;5052644;28;20465;-76
2023/10/11 07:49:38;;;;;;;6.53;2.83;;;;;;;;;;5052459;28;20493;-76
2023/10/11 07:52:09;;;;;;;15.63;3.80;;;;;;;;;;5052513;28;20979;-76
2023/10/11 07:54:39;;;;;;;7.20;3.43;;;;;;;;;;5053888;28;20482;-76
2023/10/11 07:57:13;;;;;;;11.47;3.90;;;;;;;;;;5056363;28;20800;-77
2023/10/11 07:59:40;;;;;;;12.50;3.70;;;;;;;;;;5056362;28;20433;-76
2023/10/11 08:02:09;;;;;;;8.63;3.30;;;;;;;;;;5056014;28;20439;-76
2023/10/11 08:04:47;;;;;;;9.43;3.20;;;;;;;;;;5055895;28;20524;-77
2023/10/11 08:07:16;;;;;;;7.40;3.10;;;;;;;;;;5056272;28;20784;-77
2023/10/11 08:09:46;;;;;;;8.40;3.00;;;;;;;;;;5056133;28;20528;-76
2023/10/11 08:12:14;;;;;;;11.60;3.70;;;;;;;;;;5055845;28;20435;-76
2023/10/11 08:14:44;;;;;;;8.70;3.27;;;;;;;;;;5056010;28;20536;-76
2023/10/11 08:17:13;;;;;;;6.10;3.00;;;;;;;;;;5055683;28;20461;-77
2023/10/11 08:19:44;;;;;;;6.87;3.07;;;;;;;;;;5055715;28;20436;-77
2023/10/11 08:22:14;;;;;;;8.63;3.23;;;;;;;;;;5055706;28;20425;-77
2023/10/11 08:24:48;;;;;;;7.00;3.23;;;;;;;;;;5055576;28;20433;-77
2023/10/11 08:27:23;;;;;;;6.77;3.37;;;;;;;;;;5055971;28;20477;-77
2023/10/11 08:29:54;;;;;;;15.77;3.40;;;;;;;;;;5055943;28;20448;-76
2023/10/11 08:32:26;;;;;;;8.70;3.20;;;;;;;;;;5056130;28;20783;-74
2023/10/11 08:34:54;;;;;;;8.10;3.43;;;;;;;;;;5055754;28;20429;-74
2023/10/11 08:37:21;;;;;;;10.40;3.63;;;;;;;;;;5055733;28;20436;-74
2023/10/11 08:39:54;;;;;;;8.30;3.50;;;;;;;;;;5055415;28;20417;-74
2023/10/11 08:42:22;;;;;;;7.07;3.20;;;;;;;;;;5055763;28;20507;-74
2023/10/11 08:44:50;;;;;;;9.20;3.17;;;;;;;;;;5055184;28;20779;-74
2023/10/11 08:47:19;;;;;;;9.83;3.23;;;;;;;;;;5055412;28;20806;-74
2023/10/11 08:49:49;;;;;;;12.60;4.20;;;;;;;;;;5055399;28;20468;-74
2023/10/11 08:52:21;;;;;;;10.27;3.83;;;;;;;;;;5055188;28;20420;-74
2023/10/11 08:54:50;;;;;;;9.10;3.17;;;;;;;;;;5055281;28;20507;-74
2023/10/11 08:57:17;;;;;;;9.57;4.03;;;;;;;;;;5054957;28;20451;-74
2023/10/11 08:59:51;;;;;;;6.83;3.67;;;;;;;;;;5054871;28;20433;-74
2023/10/11 09:02:19;;;;;;;6.63;3.20;;;;;;;;;;5055242;28;20782;-74
2023/10/11 09:04:56;;;;;;;5.13;3.20;;;;;;;;;;5054972;28;20498;-74
2023/10/11 09:07:36;;;;;;;8.50;3.07;;;;;;;;;;5055166;28;20551;-74
2023/10/11 09:10:22;;;;;;;8.23;2.93;;;;;;;;;;5055115;28;20490;-74
2023/10/11 09:12:56;;;;;;;10.60;3.37;;;;;;;;;;5054788;28;21089;-74
2023/10/11 09:15:23;;;;;;;8.43;2.60;;;;;;;;;;5054606;28;20421;-74
2023/10/11 09:17:51;;;;;;;7.87;2.83;;;;;;;;;;5054939;28;20490;-74
2023/10/11 09:20:24;;;;;;;9.23;3.20;;;;;;;;;;5054974;28;20441;-75
2023/10/11 09:22:55;;;;;;;7.27;3.00;;;;;;;;;;5054867;28;20515;-74
2023/10/11 09:25:33;;;;;;;4.30;2.47;;;;;;;;;;5055128;28;20776;-75
2023/10/11 09:28:04;;;;;;;7.23;3.40;;;;;;;;;;5054285;28;20468;-74
2023/10/11 09:30:31;;;;;;;8.33;3.50;;;;;;;;;;5054645;28;20422;-74
2023/10/11 09:33:05;;;;;;;6.63;2.80;;;;;;;;;;5054608;28;20436;-74
2023/10/11 09:35:32;;;;;;;7.17;2.77;;;;;;;;;;5054674;28;20432;-74
2023/10/11 09:38:01;;;;;;;7.50;3.40;;;;;;;;;;5054107;28;20494;-74
2023/10/11 09:40:31;;;;;;;8.87;3.30;;;;;;;;;;5054143;28;20494;-74
2023/10/11 09:43:01;;;;;;;6.23;3.17;;;;;;;;;;5054814;28;20432;-74
2023/10/11 09:45:40;;;;;;;9.30;3.70;;;;;;;;;;5053941;28;20418;-74
2023/10/11 09:48:08;;;;;;;10.07;3.47;;;;;;;;;;5054122;28;20421;-75
2023/10/11 09:50:40;;;;;;;7.97;3.33;;;;;;;;;;5054520;28;20433;-74
2023/10/11 09:53:08;;;;;;;6.20;3.30;;;;;;;;;;5054005;28;20429;-74
2023/10/11 09:55:38;;;;;;;10.53;3.27;;;;;;;;;;5054232;28;20429;-74
2023/10/11 09:58:17;;;;;;;8.70;3.60;;;;;;;;;;5054078;28;20443;-74
2023/10/11 10:00:50;;;;;;;8.40;3.40;;;;;;;;;;5053850;28;20425;-75
2023/10/11 10:03:17;;;;;;;7.53;3.67;;;;;;;;;;5053854;28;20516;-75
2023/10/11 10:06:03;;;;;;;5.47;3.07;;;;;;;;;;5054036;28;20880;-74
2023/10/11 10:08:30;;;;;;;8.00;3.40;;;;;;;;;;5053711;28;20444;-74
2023/10/11 10:11:02;;;;;;;9.30;3.80;;;;;;;;;;5053510;28;20432;-75
2023/10/11 10:13:30;;;;;;;7.40;2.57;;;;;;;;;;5053575;28;20478;-74
2023/10/11 10:15:58;;;;;;;12.17;3.50;;;;;;;;;;5053578;28;20440;-74
2023/10/11 10:18:27;;;;;;;5.40;3.03;;;;;;;;;;5053368;28;20505;-74
2023/10/11 10:21:02;;;;;;;9.63;3.63;;;;;;;;;;5053793;28;20443;-74
2023/10/11 10:23:29;;;;;;;9.87;2.93;;;;;;;;;;5054239;28;20423;-75
2023/10/11 10:26:15;;;;;;;13.80;3.37;;;;;;;;;;5053424;28;20808;-75
2023/10/11 10:28:54;;;;;;;4.80;3.03;;;;;;;;;;5053454;28;20957;-75
2023/10/11 10:31:22;;;;;;;7.00;3.20;;;;;;;;;;5053452;28;20455;-74
2023/10/11 10:33:50;;;;;;;13.20;3.10;;;;;;;;;;5053358;28;20428;-74
2023/10/11 10:36:37;;;;;;;10.60;3.57;;;;;;;;;;5053599;28;20789;-75
2023/10/11 10:39:36;;;;;;;8.33;2.77;;;;;;;;;;5053568;28;20428;-75
2023/10/11 10:42:12;;;;;;;6.87;3.07;;;;;;;;;;5053124;28;20501;-75
2023/10/11 10:44:49;;;;;;;7.60;2.90;;;;;;;;;;5053092;28;20439;-75
2023/10/11 10:47:31;;;;;;;8.87;3.10;;;;;;;;;;5053147;28;20518;-74
2023/10/11 10:50:06;;;;;;;9.40;4.20;;;;;;;;;;5053615;28;20460;-75
2023/10/11 10:52:34;;;;;;;8.27;2.77;;;;;;;;;;5053079;28;20424;-74
2023/10/11 10:55:05;;;;;;;7.93;3.07;;;;;;;;;;5053123;28;20483;-75
2023/10/11 10:57:32;;;;;;;6.97;3.20;;;;;;;;;;5053398;28;20506;-75
2023/10/11 11:00:05;;;;;;;9.27;3.10;;;;;;;;;;5053284;28;20437;-75
2023/10/11 11:02:43;;;;;;;9.60;3.60;;;;;;;;;;5053264;28;20424;-75
2023/10/11 11:05:13;;;;;;;8.10;2.93;;;;;;;;;;5053009;28;20430;-75
2023/10/11 11:07:41;;;;;;;7.03;2.87;;;;;;;;;;5053274;28;20428;-75
2023/10/11 11:10:08;;;;;;;8.73;3.10;;;;;;;;;;5053396;28;20432;-74
2023/10/11 11:12:35;;;;;;;6.77;3.13;;;;;;;;;;5053289;28;20468;-75
2023/10/11 11:15:08;;;;;;;6.93;3.63;;;;;;;;;;5053078;28;20760;-75
2023/10/11 11:17:48;;;;;;;8.13;2.93;;;;;;;;;;5053061;28;20464;-75
2023/10/11 11:20:15;;;;;;;8.60;3.30;;;;;;;;;;5053219;28;20490;-75
2023/10/11 11:22:45;;;;;;;10.93;3.33;;;;;;;;;;5053081;28;20468;-74
2023/10/11 11:25:18;;;;;;;12.03;2.97;;;;;;;;;;5053277;28;20509;-75
2023/10/11 11:27:45;;;;;;;7.60;3.50;;;;;;;;;;5053170;28;20845;-75
2023/10/11 11:30:29;;;;;;;9.13;3.00;;;;;;;;;;5056465;28;20915;-75
2023/10/11 11:32:57;;;;;;;6.13;3.30;;;;;;;;;;5056999;28;20424;-75
2023/10/11 11:35:29;;;;;;;11.13;3.90;;;;;;;;;;5056931;28;20432;-75
2023/10/11 11:38:02;;;;;;;9.67;3.60;;;;;;;;;;5056473;28;20933;-74
2023/10/11 11:40:30;;;;;;;14.27;3.70;;;;;;;;;;5057035;28;20431;-75
2023/10/11 11:43:01;;;;;;;9.77;3.10;;;;;;;;;;5056726;28;20498;-75
2023/10/11 11:45:32;;;;;;;11.60;3.97;;;;;;;;;;5056367;28;20425;-75
2023/10/11 11:48:02;;;;;;;10.60;3.30;;;;;;;;;;5056766;28;20454;-75
2023/10/11 11:50:30;;;;;;;9.60;4.03;;;;;;;;;;5056328;28;20489;-75
2023/10/11 11:52:58;;;;;;;8.63;3.57;;;;;;;;;;5056198;28;20498;-75
2023/10/11 11:55:24;;;;;;;9.50;3.70;;;;;;;;;;5056479;28;20424;-75
2023/10/11 11:57:52;;;;;;;7.77;3.93;;;;;;;;;;5056426;28;20460;-74
2023/10/11 12:00:38;;;;;;;8.50;3.20;;;;;;;;;;5056122;28;20965;-77
2023/10/11 12:03:08;;;;;;;8.73;3.77;;;;;;;;;;5056614;28;20431;-75
2023/10/11 12:05:40;;;;;;;8.03;4.50;;;;;;;;;;5056390;28;20436;-75
2023/10/11 12:08:18;;;;;;;7.37;4.00;;;;;;;;;;5056562;28;20735;-75
2023/10/11 12:10:47;;;;;;;6.80;3.13;;;;;;;;;;5055968;28;20466;-74
2023/10/11 12:13:22;;;;;;;9.13;4.10;;;;;;;;;;5055893;28;20472;-75
2023/10/11 12:15:54;;;;;;;9.47;4.17;;;;;;;;;;5056199;28;20482;-75
2023/10/11 12:18:23;;;;;;;7.60;3.67;;;;;;;;;;5056132;28;20761;-75
2023/10/11 12:20:51;;;;;;;10.47;3.80;;;;;;;;;;5056065;28;20529;-74
2023/10/11 12:23:18;;;;;;;9.10;3.40;;;;;;;;;;5055667;28;20437;-75
2023/10/11 12:25:48;;;;;;;7.20;3.37;;;;;;;;;;5055875;28;20436;-75
2023/10/11 12:28:16;;;;;;;6.67;3.17;;;;;;;;;;5055905;28;20482;-75
2023/10/11 12:30:48;;;;;;;7.30;3.10;;;;;;;;;;5055796;28;20440;-75
2023/10/11 12:33:18;;;;;;;5.60;2.77;;;;;;;;;;5055597;28;20515;-74
2023/10/11 12:35:49;;;;;;;8.23;3.40;;;;;;;;;;5055955;28;20425;-74
2023/10/11 12:38:16;;;;;;;10.67;3.40;;;;;;;;;;5055776;28;20464;-74
2023/10/11 12:40:45;;;;;;;6.97;3.23;;;;;;;;;;5054643;28;20436;-74
2023/10/11 12:43:12;;;;;;;8.97;2.67;;;;;;;;;;5055793;28;20473;-74
2023/10/11 12:45:42;;;;;;;10.77;3.57;;;;;;;;;;5055494;28;20433;-75
2023/10/11 12:48:10;;;;;;;6.40;3.20;;;;;;;;;;5055244;28;20473;-75
2023/10/11 12:50:37;;;;;;;8.87;2.83;;;;;;;;;;5055483;28;20476;-74
2023/10/11 12:53:11;;;;;;;7.63;3.60;;;;;;;;;;5055395;28;20483;-74
2023/10/11 12:55:41;;;;;;;8.33;3.23;;;;;;;;;;5055113;28;20452;-75
2023/10/11 12:58:11;;;;;;;8.93;3.53;;;;;;;;;;5054988;28;20453;-74
2023/10/11 13:00:47;;;;;;;7.53;3.07;;;;;;;;;;5055296;28;20429;-74
2023/10/11 13:03:18;;;;;;;8.10;2.97;;;;;;;;;;5055309;28;20425;-74
2023/10/11 13:05:46;;;;;;;8.47;3.43;;;;;;;;;;5054957;28;20520;-74
2023/10/11 13:08:15;;;;;;;7.13;4.07;;;;;;;;;;5055124;28;20472;-74
2023/10/11 13:10:45;;;;;;;8.37;3.50;;;;;;;;;;5055040;28;20498;-76
2023/10/11 13:13:13;;;;;;;7.37;3.57;;;;;;;;;;5054625;28;21002;-77
2023/10/11 13:15:41;;;;;;;10.60;3.50;;;;;;;;;;5055084;28;20447;-76
2023/10/11 13:18:11;;;;;;;10.73;3.60;;;;;;;;;;5054578;28;20565;-76
2023/10/11 13:20:38;;;;;;;8.70;3.63;;;;;;;;;;5054582;28;20432;-77
2023/10/11 13:23:07;;;;;;;7.67;3.37;;;;;;;;;;5054569;28;20437;-76
2023/10/11 13:25:35;;;;;;;14.07;4.07;;;;;;;;;;5054426;28;20945;-76
2023/10/11 13:28:04;;;;;;;9.17;3.30;;;;;;;;;;5054734;28;20829;-76
2023/10/11 13:30:36;;;;;;;7.17;3.40;;;;;;;;;;5054372;28;20468;-76
2023/10/11 13:33:05;;;;;;;9.27;3.10;;;;;;;;;;5054376;28;20471;-77
2023/10/11 13:35:35;;;;;;;6.40;3.23;;;;;;;;;;5054225;28;20433;-77
2023/10/11 13:38:11;;;;;;;7.37;3.13;;;;;;;;;;5054129;28;20971;-76
2023/10/11 13:40:40;;;;;;;8.43;3.70;;;;;;;;;;5054273;28;20478;-76
2023/10/11 13:43:08;;;;;;;7.20;3.13;;;;;;;;;;5054488;28;20495;-77
2023/10/11 13:45:40;;;;;;;8.80;3.50;;;;;;;;;;5054425;28;20829;-76
2023/10/11 13:48:11;;;;;;;9.50;3.23;;;;;;;;;;5054114;28;20425;-76
2023/10/11 13:50:40;;;;;;;5.53;3.10;;;;;;;;;;5054153;28;20425;-76
2023/10/11 13:53:12;;;;;;;5.50;2.93;;;;;;;;;;5053008;28;20436;-76
2023/10/11 13:55:41;;;;;;;5.37;2.87;;;;;;;;;;5054315;28;20425;-76
2023/10/11 13:58:14;;;;;;;10.03;3.60;;;;;;;;;;5053809;28;21013;-76
2023/10/11 14:01:01;;;;;;;5.70;2.40;;;;;;;;;;5054226;28;20421;-76
2023/10/11 14:03:42;;;;;;;4.87;2.27;;;;;;;;;;5054296;28;20428;-76
2023/10/11 14:06:22;;;;;;;7.40;3.00;;;;;;;;;;5054102;28;20426;-76
2023/10/11 14:08:50;;;;;;;6.83;2.53;;;;;;;;;;5054081;28;20808;-76
2023/10/11 14:11:18;;;;;;;10.63;3.50;;;;;;;;;;5053966;28;20441;-75
2023/10/11 14:13:50;;;;;;;7.43;2.70;;;;;;;;;;5053542;28;20516;-76
2023/10/11 14:16:27;;;;;;;6.27;2.20;;;;;;;;;;5053451;28;20482;-76
2023/10/11 14:18:56;;;;;;;6.40;2.70;;;;;;;;;;5053679;28;20461;-76
2023/10/11 14:21:25;;;;;;;6.10;3.23;;;;;;;;;;5053726;28;20433;-76
2023/10/11 14:23:53;;;;;;;5.83;2.30;;;;;;;;;;5053728;28;20441;-75
2023/10/11 14:26:22;;;;;;;7.63;2.77;;;;;;;;;;5053244;28;20469;-75
2023/10/11 14:28:50;;;;;;;6.13;2.70;;;;;;;;;;5053681;28;20475;-76
2023/10/11 14:31:22;;;;;;;6.27;2.67;;;;;;;;;;5053190;28;20456;-76
2023/10/11 14:33:49;;;;;;;10.80;3.40;;;;;;;;;;5053439;28;20425;-75
2023/10/11 14:36:23;;;;;;;7.60;3.40;;;;;;;;;;5053181;28;20433;-76
2023/10/11 14:38:51;;;;;;;6.53;3.30;;;;;;;;;;5053340;28;20425;-76
2023/10/11 14:41:21;;;;;;;8.23;3.73;;;;;;;;;;5052879;28;20477;-75
2023/10/11 14:43:50;;;;;;;7.10;3.50;;;;;;;;;;5053111;28;20437;-75
2023/10/11 14:46:19;;;;;;;6.27;3.50;;;;;;;;;;5053093;28;20776;-76
2023/10/11 14:48:48;;;;;;;6.87;2.60;;;;;;;;;;5052727;28;20931;-75
2023/10/11 14:51:16;;;;;;;5.43;2.67;;;;;;;;;;5052793;28;20439;-75
2023/10/11 14:53:44;;;;;;;5.93;3.20;;;;;;;;;;5053040;28;20433;-76
2023/10/11 14:56:11;;;;;;;8.10;2.60;;;;;;;;;;5053016;28;20437;-75
2023/10/11 14:58:39;;;;;;;3.70;1.93;;;;;;;;;;5052580;28;20927;-75
2023/10/11 15:01:08;;;;;;;4.43;3.00;;;;;;;;;;5052646;28;20780;-76
2023/10/11 15:03:37;;;;;;;5.50;3.10;;;;;;;;;;5054140;28;20465;-76
2023/10/11 15:06:08;;;;;;;5.90;2.70;;;;;;;;;;5056724;28;20457;-76
2023/10/11 15:08:37;;;;;;;6.77;3.27;;;;;;;;;;5056896;28;20496;-76
2023/10/11 15:11:05;;;;;;;5.30;2.93;;;;;;;;;;5056670;28;20521;-76
2023/10/11 15:13:33;;;;;;;5.90;2.70;;;;;;;;;;5056943;28;20508;-76
2023/10/11 15:16:03;;;;;;;7.03;2.60;;;;;;;;;;5056571;28;20436;-76
2023/10/11 15:18:34;;;;;;;8.57;3.40;;;;;;;;;;5056924;28;20430;-76
2023/10/11 15:21:06;;;;;;;9.50;3.20;;;;;;;;;;5056661;28;20437;-76
2023/10/11 15:23:33;;;;;;;5.33;3.30;;;;;;;;;;5056666;28;20895;-76
2023/10/11 15:26:01;;;;;;;5.53;2.90;;;;;;;;;;5056555;28;20554;-76
2023/10/11 15:28:30;;;;;;;6.13;3.03;;;;;;;;;;5056582;28;20476;-77
2023/10/11 15:31:00;;;;;;;8.17;2.80;;;;;;;;;;5056767;28;20433;-76
2023/10/11 15:33:27;;;;;;;6.30;3.00;;;;;;;;;;5056588;28;20516;-75
2023/10/11 15:35:58;;;;;;;6.87;2.97;;;;;;;;;;5056176;28;20919;-76
2023/10/11 15:38:26;;;;;;;8.03;3.00;;;;;;;;;;5056260;28;20465;-76
2023/10/11 15:41:00;;;;;;;7.60;3.60;;;;;;;;;;5056222;28;20425;-76
2023/10/11 15:43:28;;;;;;;11.80;2.87;;;;;;;;;;5056179;28;20437;-76
2023/10/11 15:45:55;;;;;;;8.37;3.67;;;;;;;;;;5056482;28;20441;-76
2023/10/11 15:48:23;;;;;;;11.70;3.10;;;;;;;;;;5055930;28;21024;-77
2023/10/11 15:50:50;;;;;;;8.23;3.13;;;;;;;;;;5056512;28;20437;-75
2023/10/11 15:53:21;;;;;;;6.77;3.37;;;;;;;;;;5056054;28;20433;-76
2023/10/11 15:55:48;;;;;;;5.40;2.97;;;;;;;;;;5056770;28;20753;-76